sensor_id;sensor_type;location;lat;lon;timestamp;temperature;humidity
9446;DHT22;4761;49.490;10.908;2023-04-15T00:01:27;18.10;55.90
9446;DHT22;4761;49.490;10.908;2023-04-15T00:03:53;18.10;55.90
9446;DHT22;4761;49.490;10.908;2023-04-15T00:06:23;18.10;55.90
9446;DHT22;4761;49.490;10.908;2023-04-15T00:08:49;18.10;55.80
9446;DHT22;4761;49.490;10.908;2023-04-15T00:11:17;18.10;55.90
9446;DHT22;4761;49.490;10.908;2023-04-15T00:13:43;18.10;55.80
9446;DHT22;4761;49.490;10.908;2023-04-15T00:16:08;18.10;55.90
9446;DHT22;4761;49.490;10.908;2023-04-15T00:18:34;18.10;55.90
9446;DHT22;4761;49.490;10.908;2023-04-15T00:21:00;18.10;55.70
9446;DHT22;4761;49.490;10.908;2023-04-15T00:23:27;18.10;55.70
9446;DHT22;4761;49.490;10.908;2023-04-15T00:25:52;18.10;55.70
9446;DHT22;4761;49.490;10.908;2023-04-15T00:28:18;18.10;55.70
9446;DHT22;4761;49.490;10.908;2023-04-15T00:30:44;18.10;56.20
9446;DHT22;4761;49.490;10.908;2023-04-15T00:33:10;18.10;55.70
9446;DHT22;4761;49.490;10.908;2023-04-15T00:35:35;18.10;55.70
9446;DHT22;4761;49.490;10.908;2023-04-15T00:38:02;18.10;56.20
9446;DHT22;4761;49.490;10.908;2023-04-15T00:40:27;18.10;55.60
9446;DHT22;4761;49.490;10.908;2023-04-15T00:42:53;18.10;55.50
9446;DHT22;4761;49.490;10.908;2023-04-15T00:45:18;18.10;55.50
9446;DHT22;4761;49.490;10.908;2023-04-15T00:47:44;18.10;55.40
9446;DHT22;4761;49.490;10.908;2023-04-15T00:50:10;18.10;55.50
9446;DHT22;4761;49.490;10.908;2023-04-15T00:52:37;18.10;55.50
9446;DHT22;4761;49.490;10.908;2023-04-15T00:55:03;18.10;55.50
9446;DHT22;4761;49.490;10.908;2023-04-15T00:57:30;18.10;55.50
9446;DHT22;4761;49.490;10.908;2023-04-15T00:59:56;18.10;55.40
9446;DHT22;4761;49.490;10.908;2023-04-15T01:02:22;18.10;55.30
9446;DHT22;4761;49.490;10.908;2023-04-15T01:04:48;18.10;55.30
9446;DHT22;4761;49.490;10.908;2023-04-15T01:07:14;18.10;55.20
9446;DHT22;4761;49.490;10.908;2023-04-15T01:09:40;18.10;55.30
9446;DHT22;4761;49.490;10.908;2023-04-15T01:12:06;18.00;55.20
9446;DHT22;4761;49.490;10.908;2023-04-15T01:14:34;18.00;55.30
9446;DHT22;4761;49.490;10.908;2023-04-15T01:17:00;18.10;55.40
9446;DHT22;4761;49.490;10.908;2023-04-15T01:19:26;18.10;55.20
9446;DHT22;4761;49.490;10.908;2023-04-15T01:21:53;18.10;55.20
9446;DHT22;4761;49.490;10.908;2023-04-15T01:24:18;18.00;55.10
9446;DHT22;4761;49.490;10.908;2023-04-15T01:26:44;18.10;55.20
9446;DHT22;4761;49.490;10.908;2023-04-15T01:29:11;18.10;55.20
9446;DHT22;4761;49.490;10.908;2023-04-15T01:31:36;18.00;55.10
9446;DHT22;4761;49.490;10.908;2023-04-15T01:34:02;18.00;55.10
9446;DHT22;4761;49.490;10.908;2023-04-15T01:36:27;18.00;55.10
9446;DHT22;4761;49.490;10.908;2023-04-15T01:38:54;18.00;55.10
9446;DHT22;4761;49.490;10.908;2023-04-15T01:41:27;18.00;55.10
9446;DHT22;4761;49.490;10.908;2023-04-15T01:43:53;18.00;55.00
9446;DHT22;4761;49.490;10.908;2023-04-15T01:46:19;18.00;55.00
9446;DHT22;4761;49.490;10.908;2023-04-15T01:48:45;18.00;55.00
9446;DHT22;4761;49.490;10.908;2023-04-15T01:51:10;18.00;54.90
9446;DHT22;4761;49.490;10.908;2023-04-15T01:53:36;18.00;55.00
9446;DHT22;4761;49.490;10.908;2023-04-15T01:56:02;18.00;54.90
9446;DHT22;4761;49.490;10.908;2023-04-15T01:58:27;18.00;54.80
9446;DHT22;4761;49.490;10.908;2023-04-15T02:00:53;18.00;54.80
9446;DHT22;4761;49.490;10.908;2023-04-15T02:03:18;18.00;54.80
9446;DHT22;4761;49.490;10.908;2023-04-15T02:05:44;18.00;54.80
9446;DHT22;4761;49.490;10.908;2023-04-15T02:08:10;18.00;54.80
9446;DHT22;4761;49.490;10.908;2023-04-15T02:10:35;18.00;54.80
9446;DHT22;4761;49.490;10.908;2023-04-15T02:13:01;18.00;54.60
9446;DHT22;4761;49.490;10.908;2023-04-15T02:15:26;18.00;54.50
9446;DHT22;4761;49.490;10.908;2023-04-15T02:17:52;18.00;54.60
9446;DHT22;4761;49.490;10.908;2023-04-15T02:20:19;18.00;54.50
9446;DHT22;4761;49.490;10.908;2023-04-15T02:22:45;18.00;54.70
9446;DHT22;4761;49.490;10.908;2023-04-15T02:25:12;18.00;54.60
9446;DHT22;4761;49.490;10.908;2023-04-15T02:27:38;18.00;54.50
9446;DHT22;4761;49.490;10.908;2023-04-15T02:30:04;18.00;54.40
9446;DHT22;4761;49.490;10.908;2023-04-15T02:32:30;18.00;54.40
9446;DHT22;4761;49.490;10.908;2023-04-15T02:34:55;18.00;54.30
9446;DHT22;4761;49.490;10.908;2023-04-15T02:37:21;18.00;54.40
9446;DHT22;4761;49.490;10.908;2023-04-15T02:39:47;18.00;54.40
9446;DHT22;4761;49.490;10.908;2023-04-15T02:42:13;18.00;54.40
9446;DHT22;4761;49.490;10.908;2023-04-15T02:44:38;17.90;54.40
9446;DHT22;4761;49.490;10.908;2023-04-15T02:47:04;18.00;54.40
9446;DHT22;4761;49.490;10.908;2023-04-15T02:49:31;18.00;54.40
9446;DHT22;4761;49.490;10.908;2023-04-15T02:51:57;17.90;54.30
9446;DHT22;4761;49.490;10.908;2023-04-15T02:54:24;17.90;54.30
9446;DHT22;4761;49.490;10.908;2023-04-15T02:56:50;17.90;54.20
9446;DHT22;4761;49.490;10.908;2023-04-15T02:59:19;18.00;54.40
9446;DHT22;4761;49.490;10.908;2023-04-15T03:01:45;17.90;54.30
9446;DHT22;4761;49.490;10.908;2023-04-15T03:04:10;17.90;54.30
9446;DHT22;4761;49.490;10.908;2023-04-15T03:06:36;17.90;54.30
9446;DHT22;4761;49.490;10.908;2023-04-15T03:09:01;17.90;54.30
9446;DHT22;4761;49.490;10.908;2023-04-15T03:11:31;17.90;54.10
9446;DHT22;4761;49.490;10.908;2023-04-15T03:13:57;17.90;54.10
9446;DHT22;4761;49.490;10.908;2023-04-15T03:16:23;17.90;54.00
9446;DHT22;4761;49.490;10.908;2023-04-15T03:18:49;17.90;54.00
9446;DHT22;4761;49.490;10.908;2023-04-15T03:21:14;17.90;54.10
9446;DHT22;4761;49.490;10.908;2023-04-15T03:23:40;17.90;54.10
9446;DHT22;4761;49.490;10.908;2023-04-15T03:26:06;17.90;54.10
9446;DHT22;4761;49.490;10.908;2023-04-15T03:28:31;17.90;53.90
9446;DHT22;4761;49.490;10.908;2023-04-15T03:30:57;17.90;53.90
9446;DHT22;4761;49.490;10.908;2023-04-15T03:33:23;17.90;53.90
9446;DHT22;4761;49.490;10.908;2023-04-15T03:35:50;17.90;53.90
9446;DHT22;4761;49.490;10.908;2023-04-15T03:38:15;17.90;53.90
9446;DHT22;4761;49.490;10.908;2023-04-15T03:40:41;17.90;53.90
9446;DHT22;4761;49.490;10.908;2023-04-15T03:43:07;17.90;53.90
9446;DHT22;4761;49.490;10.908;2023-04-15T03:45:32;17.90;53.90
9446;DHT22;4761;49.490;10.908;2023-04-15T03:47:58;18.00;53.90
9446;DHT22;4761;49.490;10.908;2023-04-15T03:50:23;17.90;53.90
9446;DHT22;4761;49.490;10.908;2023-04-15T03:52:49;17.90;53.80
9446;DHT22;4761;49.490;10.908;2023-04-15T03:55:15;17.90;53.80
9446;DHT22;4761;49.490;10.908;2023-04-15T03:57:40;17.90;53.80
9446;DHT22;4761;49.490;10.908;2023-04-15T04:00:08;17.90;53.80
9446;DHT22;4761;49.490;10.908;2023-04-15T04:02:34;17.90;53.70
9446;DHT22;4761;49.490;10.908;2023-04-15T04:05:00;17.90;53.60
9446;DHT22;4761;49.490;10.908;2023-04-15T04:07:25;18.00;53.60
9446;DHT22;4761;49.490;10.908;2023-04-15T04:09:51;18.00;53.50
9446;DHT22;4761;49.490;10.908;2023-04-15T04:12:16;18.10;53.40
9446;DHT22;4761;49.490;10.908;2023-04-15T04:14:42;18.10;53.20
9446;DHT22;4761;49.490;10.908;2023-04-15T04:17:08;18.10;53.10
9446;DHT22;4761;49.490;10.908;2023-04-15T04:19:33;18.10;53.10
9446;DHT22;4761;49.490;10.908;2023-04-15T04:21:59;18.10;53.00
9446;DHT22;4761;49.490;10.908;2023-04-15T04:24:24;18.10;52.90
9446;DHT22;4761;49.490;10.908;2023-04-15T04:26:50;18.10;52.90
9446;DHT22;4761;49.490;10.908;2023-04-15T04:29:16;18.10;52.90
9446;DHT22;4761;49.490;10.908;2023-04-15T04:31:41;18.10;52.90
9446;DHT22;4761;49.490;10.908;2023-04-15T04:34:07;18.10;52.80
9446;DHT22;4761;49.490;10.908;2023-04-15T04:36:32;18.10;52.90
9446;DHT22;4761;49.490;10.908;2023-04-15T04:38:58;18.10;52.90
9446;DHT22;4761;49.490;10.908;2023-04-15T04:41:24;18.10;52.80
9446;DHT22;4761;49.490;10.908;2023-04-15T04:43:49;18.10;52.80
9446;DHT22;4761;49.490;10.908;2023-04-15T04:46:15;18.10;52.70
9446;DHT22;4761;49.490;10.908;2023-04-15T04:48:40;18.10;52.70
9446;DHT22;4761;49.490;10.908;2023-04-15T04:51:06;18.10;52.70
9446;DHT22;4761;49.490;10.908;2023-04-15T04:53:32;18.10;52.80
9446;DHT22;4761;49.490;10.908;2023-04-15T04:55:58;18.10;52.70
9446;DHT22;4761;49.490;10.908;2023-04-15T04:58:23;18.10;53.40
9446;DHT22;4761;49.490;10.908;2023-04-15T05:00:49;18.10;52.70
9446;DHT22;4761;49.490;10.908;2023-04-15T05:03:15;18.10;52.80
9446;DHT22;4761;49.490;10.908;2023-04-15T05:05:40;18.10;52.80
9446;DHT22;4761;49.490;10.908;2023-04-15T05:08:06;18.00;48.90
9446;DHT22;4761;49.490;10.908;2023-04-15T05:10:32;17.90;47.00
9446;DHT22;4761;49.490;10.908;2023-04-15T05:12:58;17.80;46.30
9446;DHT22;4761;49.490;10.908;2023-04-15T05:15:23;17.80;45.70
9446;DHT22;4761;49.490;10.908;2023-04-15T05:17:49;17.80;45.20
9446;DHT22;4761;49.490;10.908;2023-04-15T05:20:16;17.80;44.80
9446;DHT22;4761;49.490;10.908;2023-04-15T05:22:41;17.80;44.60
9446;DHT22;4761;49.490;10.908;2023-04-15T05:25:07;17.90;44.40
9446;DHT22;4761;49.490;10.908;2023-04-15T05:27:33;17.90;44.10
9446;DHT22;4761;49.490;10.908;2023-04-15T05:29:59;18.00;43.90
9446;DHT22;4761;49.490;10.908;2023-04-15T05:32:24;18.10;43.70
9446;DHT22;4761;49.490;10.908;2023-04-15T05:34:50;18.10;43.40
9446;DHT22;4761;49.490;10.908;2023-04-15T05:37:16;18.20;43.20
9446;DHT22;4761;49.490;10.908;2023-04-15T05:39:42;18.30;43.10
9446;DHT22;4761;49.490;10.908;2023-04-15T05:42:07;18.30;42.80
9446;DHT22;4761;49.490;10.908;2023-04-15T05:44:33;18.40;42.70
9446;DHT22;4761;49.490;10.908;2023-04-15T05:46:58;18.40;42.60
9446;DHT22;4761;49.490;10.908;2023-04-15T05:49:24;18.40;42.50
9446;DHT22;4761;49.490;10.908;2023-04-15T05:51:49;18.50;42.40
9446;DHT22;4761;49.490;10.908;2023-04-15T05:54:15;18.50;42.30
9446;DHT22;4761;49.490;10.908;2023-04-15T05:56:41;18.50;42.10
9446;DHT22;4761;49.490;10.908;2023-04-15T05:59:07;18.60;42.10
9446;DHT22;4761;49.490;10.908;2023-04-15T06:01:33;18.60;42.00
9446;DHT22;4761;49.490;10.908;2023-04-15T06:03:59;18.70;42.10
9446;DHT22;4761;49.490;10.908;2023-04-15T06:06:24;18.70;42.00
9446;DHT22;4761;49.490;10.908;2023-04-15T06:08:51;18.70;42.00
9446;DHT22;4761;49.490;10.908;2023-04-15T06:11:17;18.70;42.00
9446;DHT22;4761;49.490;10.908;2023-04-15T06:13:42;18.70;42.00
9446;DHT22;4761;49.490;10.908;2023-04-15T06:16:08;18.70;42.00
9446;DHT22;4761;49.490;10.908;2023-04-15T06:18:33;18.80;42.00
9446;DHT22;4761;49.490;10.908;2023-04-15T06:20:59;18.80;42.00
9446;DHT22;4761;49.490;10.908;2023-04-15T06:23:24;18.80;42.00
9446;DHT22;4761;49.490;10.908;2023-04-15T06:25:50;18.80;42.00
9446;DHT22;4761;49.490;10.908;2023-04-15T06:28:16;18.80;41.90
9446;DHT22;4761;49.490;10.908;2023-04-15T06:30:41;18.80;41.80
9446;DHT22;4761;49.490;10.908;2023-04-15T06:33:07;18.80;41.80
9446;DHT22;4761;49.490;10.908;2023-04-15T06:35:33;18.80;41.80
9446;DHT22;4761;49.490;10.908;2023-04-15T06:37:58;18.90;41.80
9446;DHT22;4761;49.490;10.908;2023-04-15T06:40:23;18.90;41.80
9446;DHT22;4761;49.490;10.908;2023-04-15T06:42:49;18.90;41.80
9446;DHT22;4761;49.490;10.908;2023-04-15T06:45:15;18.90;41.80
9446;DHT22;4761;49.490;10.908;2023-04-15T06:47:41;18.90;41.70
9446;DHT22;4761;49.490;10.908;2023-04-15T06:50:08;18.90;41.70
9446;DHT22;4761;49.490;10.908;2023-04-15T06:52:34;18.90;41.80
9446;DHT22;4761;49.490;10.908;2023-04-15T06:55:00;18.90;41.80
9446;DHT22;4761;49.490;10.908;2023-04-15T06:57:26;18.90;41.70
9446;DHT22;4761;49.490;10.908;2023-04-15T06:59:53;18.90;41.80
9446;DHT22;4761;49.490;10.908;2023-04-15T07:02:19;18.90;42.40
9446;DHT22;4761;49.490;10.908;2023-04-15T07:04:45;18.90;41.70
9446;DHT22;4761;49.490;10.908;2023-04-15T07:07:10;18.90;41.80
9446;DHT22;4761;49.490;10.908;2023-04-15T07:09:36;19.00;41.80
9446;DHT22;4761;49.490;10.908;2023-04-15T07:12:02;19.00;41.90
9446;DHT22;4761;49.490;10.908;2023-04-15T07:14:28;19.00;41.80
9446;DHT22;4761;49.490;10.908;2023-04-15T07:16:54;19.00;41.70
9446;DHT22;4761;49.490;10.908;2023-04-15T07:19:20;19.00;41.70
9446;DHT22;4761;49.490;10.908;2023-04-15T07:21:46;19.00;41.70
9446;DHT22;4761;49.490;10.908;2023-04-15T07:24:12;19.00;41.70
9446;DHT22;4761;49.490;10.908;2023-04-15T07:26:41;19.00;41.70
9446;DHT22;4761;49.490;10.908;2023-04-15T07:29:06;19.00;41.80
9446;DHT22;4761;49.490;10.908;2023-04-15T07:31:32;19.00;41.70
9446;DHT22;4761;49.490;10.908;2023-04-15T07:33:57;19.00;41.70
9446;DHT22;4761;49.490;10.908;2023-04-15T07:36:24;19.00;41.70
9446;DHT22;4761;49.490;10.908;2023-04-15T07:38:49;19.00;41.70
9446;DHT22;4761;49.490;10.908;2023-04-15T07:41:15;19.00;41.70
9446;DHT22;4761;49.490;10.908;2023-04-15T07:43:40;19.00;41.60
9446;DHT22;4761;49.490;10.908;2023-04-15T07:46:06;19.00;41.60
9446;DHT22;4761;49.490;10.908;2023-04-15T07:48:32;19.00;41.90
9446;DHT22;4761;49.490;10.908;2023-04-15T07:50:57;19.00;41.50
9446;DHT22;4761;49.490;10.908;2023-04-15T07:53:23;19.00;41.50
9446;DHT22;4761;49.490;10.908;2023-04-15T07:55:48;19.00;41.50
9446;DHT22;4761;49.490;10.908;2023-04-15T07:58:14;19.00;41.40
9446;DHT22;4761;49.490;10.908;2023-04-15T08:00:39;19.00;41.40
9446;DHT22;4761;49.490;10.908;2023-04-15T08:03:05;19.00;45.80
9446;DHT22;4761;49.490;10.908;2023-04-15T08:05:31;19.20;48.10
9446;DHT22;4761;49.490;10.908;2023-04-15T08:07:57;19.20;48.20
9446;DHT22;4761;49.490;10.908;2023-04-15T08:10:23;19.10;48.30
9446;DHT22;4761;49.490;10.908;2023-04-15T08:12:48;19.00;48.50
9446;DHT22;4761;49.490;10.908;2023-04-15T08:15:14;19.00;48.80
9446;DHT22;4761;49.490;10.908;2023-04-15T08:17:39;18.90;48.90
9446;DHT22;4761;49.490;10.908;2023-04-15T08:20:05;18.80;49.10
9446;DHT22;4761;49.490;10.908;2023-04-15T08:22:31;18.70;49.10
9446;DHT22;4761;49.490;10.908;2023-04-15T08:24:56;18.70;49.40
9446;DHT22;4761;49.490;10.908;2023-04-15T08:27:22;18.60;49.90
9446;DHT22;4761;49.490;10.908;2023-04-15T08:29:47;18.60;49.70
9446;DHT22;4761;49.490;10.908;2023-04-15T08:32:13;18.50;49.70
9446;DHT22;4761;49.490;10.908;2023-04-15T08:34:39;18.50;49.70
9446;DHT22;4761;49.490;10.908;2023-04-15T08:37:04;18.50;49.80
9446;DHT22;4761;49.490;10.908;2023-04-15T08:39:31;18.40;49.90
9446;DHT22;4761;49.490;10.908;2023-04-15T08:42:01;18.40;50.00
9446;DHT22;4761;49.490;10.908;2023-04-15T08:44:29;18.40;50.10
9446;DHT22;4761;49.490;10.908;2023-04-15T08:47:00;18.40;50.20
9446;DHT22;4761;49.490;10.908;2023-04-15T08:49:26;18.30;50.30
9446;DHT22;4761;49.490;10.908;2023-04-15T08:51:53;18.30;50.30
9446;DHT22;4761;49.490;10.908;2023-04-15T08:54:19;18.30;50.40
9446;DHT22;4761;49.490;10.908;2023-04-15T08:56:45;18.30;50.40
9446;DHT22;4761;49.490;10.908;2023-04-15T08:59:10;18.30;50.50
9446;DHT22;4761;49.490;10.908;2023-04-15T09:01:37;18.30;50.60
9446;DHT22;4761;49.490;10.908;2023-04-15T09:04:02;18.20;50.60
9446;DHT22;4761;49.490;10.908;2023-04-15T09:06:28;18.20;50.60
9446;DHT22;4761;49.490;10.908;2023-04-15T09:08:54;18.30;50.70
9446;DHT22;4761;49.490;10.908;2023-04-15T09:11:21;18.20;50.60
9446;DHT22;4761;49.490;10.908;2023-04-15T09:13:46;18.20;50.60
9446;DHT22;4761;49.490;10.908;2023-04-15T09:16:12;18.20;50.50
9446;DHT22;4761;49.490;10.908;2023-04-15T09:18:38;18.20;50.40
9446;DHT22;4761;49.490;10.908;2023-04-15T09:21:12;18.20;50.40
9446;DHT22;4761;49.490;10.908;2023-04-15T09:23:40;18.20;50.50
9446;DHT22;4761;49.490;10.908;2023-04-15T09:26:06;18.20;50.30
9446;DHT22;4761;49.490;10.908;2023-04-15T09:28:33;18.20;50.30
9446;DHT22;4761;49.490;10.908;2023-04-15T09:31:05;18.20;50.30
9446;DHT22;4761;49.490;10.908;2023-04-15T09:33:31;18.20;50.20
9446;DHT22;4761;49.490;10.908;2023-04-15T09:35:58;18.10;50.20
9446;DHT22;4761;49.490;10.908;2023-04-15T09:38:24;18.20;50.10
9446;DHT22;4761;49.490;10.908;2023-04-15T09:40:50;18.10;50.20
9446;DHT22;4761;49.490;10.908;2023-04-15T09:43:15;18.10;50.20
9446;DHT22;4761;49.490;10.908;2023-04-15T09:45:48;18.10;50.20
9446;DHT22;4761;49.490;10.908;2023-04-15T09:48:19;18.10;50.20
9446;DHT22;4761;49.490;10.908;2023-04-15T09:50:46;18.10;50.10
9446;DHT22;4761;49.490;10.908;2023-04-15T09:53:18;18.10;50.20
9446;DHT22;4761;49.490;10.908;2023-04-15T09:55:55;18.10;50.10
9446;DHT22;4761;49.490;10.908;2023-04-15T09:58:29;18.10;50.00
9446;DHT22;4761;49.490;10.908;2023-04-15T10:00:56;18.10;50.20
9446;DHT22;4761;49.490;10.908;2023-04-15T10:03:25;18.10;50.10
9446;DHT22;4761;49.490;10.908;2023-04-15T10:05:53;18.10;50.10
9446;DHT22;4761;49.490;10.908;2023-04-15T10:08:21;18.10;50.30
9446;DHT22;4761;49.490;10.908;2023-04-15T10:10:48;18.10;50.20
9446;DHT22;4761;49.490;10.908;2023-04-15T10:13:20;18.10;50.20
9446;DHT22;4761;49.490;10.908;2023-04-15T10:15:57;18.00;50.00
9446;DHT22;4761;49.490;10.908;2023-04-15T10:18:25;18.10;50.20
9446;DHT22;4761;49.490;10.908;2023-04-15T10:20:51;18.10;50.20
9446;DHT22;4761;49.490;10.908;2023-04-15T10:23:18;18.00;50.20
9446;DHT22;4761;49.490;10.908;2023-04-15T10:25:45;18.00;50.10
9446;DHT22;4761;49.490;10.908;2023-04-15T10:28:11;18.00;50.20
9446;DHT22;4761;49.490;10.908;2023-04-15T10:30:37;18.00;50.20
9446;DHT22;4761;49.490;10.908;2023-04-15T10:33:04;18.00;50.30
9446;DHT22;4761;49.490;10.908;2023-04-15T10:35:31;18.00;50.20
9446;DHT22;4761;49.490;10.908;2023-04-15T10:37:57;18.00;50.30
9446;DHT22;4761;49.490;10.908;2023-04-15T10:40:24;18.00;50.30
9446;DHT22;4761;49.490;10.908;2023-04-15T10:42:58;18.00;50.30
9446;DHT22;4761;49.490;10.908;2023-04-15T10:45:32;18.00;50.90
9446;DHT22;4761;49.490;10.908;2023-04-15T10:48:00;18.00;50.40
9446;DHT22;4761;49.490;10.908;2023-04-15T10:50:27;17.90;50.30
9446;DHT22;4761;49.490;10.908;2023-04-15T10:52:55;17.90;50.20
9446;DHT22;4761;49.490;10.908;2023-04-15T10:55:23;17.90;50.30
9446;DHT22;4761;49.490;10.908;2023-04-15T10:57:53;18.00;50.30
9446;DHT22;4761;49.490;10.908;2023-04-15T11:00:20;18.00;50.20
9446;DHT22;4761;49.490;10.908;2023-04-15T11:03:04;18.00;50.30
9446;DHT22;4761;49.490;10.908;2023-04-15T11:05:48;18.00;50.30
9446;DHT22;4761;49.490;10.908;2023-04-15T11:08:14;18.00;50.30
9446;DHT22;4761;49.490;10.908;2023-04-15T11:13:19;18.00;50.30
9446;DHT22;4761;49.490;10.908;2023-04-15T11:15:49;18.00;50.30
9446;DHT22;4761;49.490;10.908;2023-04-15T11:18:20;18.00;50.20
9446;DHT22;4761;49.490;10.908;2023-04-15T11:21:13;18.10;50.20
9446;DHT22;4761;49.490;10.908;2023-04-15T11:23:40;18.10;50.10
9446;DHT22;4761;49.490;10.908;2023-04-15T11:26:09;18.10;50.00
9446;DHT22;4761;49.490;10.908;2023-04-15T11:28:40;18.10;49.90
9446;DHT22;4761;49.490;10.908;2023-04-15T11:31:13;18.20;49.80
9446;DHT22;4761;49.490;10.908;2023-04-15T11:33:58;18.20;49.70
9446;DHT22;4761;49.490;10.908;2023-04-15T11:36:27;18.30;49.80
9446;DHT22;4761;49.490;10.908;2023-04-15T11:38:53;18.30;49.70
9446;DHT22;4761;49.490;10.908;2023-04-15T11:41:22;18.30;49.60
9446;DHT22;4761;49.490;10.908;2023-04-15T11:43:48;18.30;49.50
9446;DHT22;4761;49.490;10.908;2023-04-15T11:46:14;18.30;49.50
9446;DHT22;4761;49.490;10.908;2023-04-15T11:48:42;18.30;49.40
9446;DHT22;4761;49.490;10.908;2023-04-15T11:51:10;18.20;49.30
9446;DHT22;4761;49.490;10.908;2023-04-15T11:53:49;18.20;49.40
9446;DHT22;4761;49.490;10.908;2023-04-15T11:56:24;18.20;49.40
9446;DHT22;4761;49.490;10.908;2023-04-15T11:58:55;18.20;50.00
9446;DHT22;4761;49.490;10.908;2023-04-15T12:01:38;18.20;49.40
9446;DHT22;4761;49.490;10.908;2023-04-15T12:04:12;18.20;49.40
9446;DHT22;4761;49.490;10.908;2023-04-15T12:06:38;18.20;49.30
9446;DHT22;4761;49.490;10.908;2023-04-15T12:11:32;18.20;49.30
9446;DHT22;4761;49.490;10.908;2023-04-15T12:16:48;18.20;49.30
9446;DHT22;4761;49.490;10.908;2023-04-15T12:19:15;18.20;49.40
9446;DHT22;4761;49.490;10.908;2023-04-15T12:21:44;18.20;49.40
9446;DHT22;4761;49.490;10.908;2023-04-15T12:24:11;18.20;49.40
9446;DHT22;4761;49.490;10.908;2023-04-15T12:26:49;18.20;49.20
9446;DHT22;4761;49.490;10.908;2023-04-15T12:29:15;18.20;49.30
9446;DHT22;4761;49.490;10.908;2023-04-15T12:32:03;18.20;49.30
9446;DHT22;4761;49.490;10.908;2023-04-15T12:34:32;18.20;49.30
9446;DHT22;4761;49.490;10.908;2023-04-15T12:36:59;18.20;49.30
9446;DHT22;4761;49.490;10.908;2023-04-15T12:39:26;18.20;49.20
9446;DHT22;4761;49.490;10.908;2023-04-15T12:41:53;18.20;49.30
9446;DHT22;4761;49.490;10.908;2023-04-15T12:44:19;18.20;49.30
9446;DHT22;4761;49.490;10.908;2023-04-15T12:46:45;18.10;49.20
9446;DHT22;4761;49.490;10.908;2023-04-15T12:49:11;18.20;49.80
9446;DHT22;4761;49.490;10.908;2023-04-15T12:51:39;18.20;49.30
9446;DHT22;4761;49.490;10.908;2023-04-15T12:54:04;18.20;49.20
9446;DHT22;4761;49.490;10.908;2023-04-15T12:56:30;18.10;49.10
9446;DHT22;4761;49.490;10.908;2023-04-15T12:58:55;18.10;49.10
9446;DHT22;4761;49.490;10.908;2023-04-15T13:01:21;18.10;49.10
9446;DHT22;4761;49.490;10.908;2023-04-15T13:03:47;18.10;49.10
9446;DHT22;4761;49.490;10.908;2023-04-15T13:06:13;18.10;49.10
9446;DHT22;4761;49.490;10.908;2023-04-15T13:08:38;18.10;49.20
9446;DHT22;4761;49.490;10.908;2023-04-15T13:11:04;18.10;49.20
9446;DHT22;4761;49.490;10.908;2023-04-15T13:13:30;18.10;49.20
9446;DHT22;4761;49.490;10.908;2023-04-15T13:15:56;18.10;49.30
9446;DHT22;4761;49.490;10.908;2023-04-15T13:18:22;18.10;49.30
9446;DHT22;4761;49.490;10.908;2023-04-15T13:20:48;18.10;49.20
9446;DHT22;4761;49.490;10.908;2023-04-15T13:23:14;18.10;49.20
9446;DHT22;4761;49.490;10.908;2023-04-15T13:25:39;18.10;49.20
9446;DHT22;4761;49.490;10.908;2023-04-15T13:28:05;18.10;49.20
9446;DHT22;4761;49.490;10.908;2023-04-15T13:30:31;18.10;49.10
9446;DHT22;4761;49.490;10.908;2023-04-15T13:32:56;18.10;49.10
9446;DHT22;4761;49.490;10.908;2023-04-15T13:35:22;18.10;49.20
9446;DHT22;4761;49.490;10.908;2023-04-15T13:37:47;18.10;49.20
9446;DHT22;4761;49.490;10.908;2023-04-15T13:40:13;18.10;49.20
9446;DHT22;4761;49.490;10.908;2023-04-15T13:42:39;18.10;49.20
9446;DHT22;4761;49.490;10.908;2023-04-15T13:45:05;18.10;49.20
9446;DHT22;4761;49.490;10.908;2023-04-15T13:47:31;18.10;49.10
9446;DHT22;4761;49.490;10.908;2023-04-15T13:49:57;18.10;49.30
9446;DHT22;4761;49.490;10.908;2023-04-15T13:52:22;18.10;49.30
9446;DHT22;4761;49.490;10.908;2023-04-15T13:54:48;18.10;49.20
9446;DHT22;4761;49.490;10.908;2023-04-15T13:57:14;18.10;49.20
9446;DHT22;4761;49.490;10.908;2023-04-15T13:59:39;18.10;49.20
9446;DHT22;4761;49.490;10.908;2023-04-15T14:02:05;18.10;49.20
9446;DHT22;4761;49.490;10.908;2023-04-15T14:04:31;18.10;49.20
9446;DHT22;4761;49.490;10.908;2023-04-15T14:06:57;18.10;49.20
9446;DHT22;4761;49.490;10.908;2023-04-15T14:09:23;18.10;49.20
9446;DHT22;4761;49.490;10.908;2023-04-15T14:11:49;18.10;49.20
9446;DHT22;4761;49.490;10.908;2023-04-15T14:14:15;18.10;49.30
9446;DHT22;4761;49.490;10.908;2023-04-15T14:16:41;18.10;49.20
9446;DHT22;4761;49.490;10.908;2023-04-15T14:19:06;18.10;49.20
9446;DHT22;4761;49.490;10.908;2023-04-15T14:21:32;18.10;49.10
9446;DHT22;4761;49.490;10.908;2023-04-15T14:23:58;18.10;49.10
9446;DHT22;4761;49.490;10.908;2023-04-15T14:26:23;18.10;49.10
9446;DHT22;4761;49.490;10.908;2023-04-15T14:28:49;18.10;49.10
9446;DHT22;4761;49.490;10.908;2023-04-15T14:31:15;18.10;49.10
9446;DHT22;4761;49.490;10.908;2023-04-15T14:33:40;18.10;49.10
9446;DHT22;4761;49.490;10.908;2023-04-15T14:36:07;18.10;49.00
9446;DHT22;4761;49.490;10.908;2023-04-15T14:38:33;18.10;49.10
9446;DHT22;4761;49.490;10.908;2023-04-15T14:41:03;18.10;49.00
9446;DHT22;4761;49.490;10.908;2023-04-15T14:43:28;18.10;49.10
9446;DHT22;4761;49.490;10.908;2023-04-15T14:45:54;18.10;49.10
9446;DHT22;4761;49.490;10.908;2023-04-15T14:48:20;18.10;48.90
9446;DHT22;4761;49.490;10.908;2023-04-15T14:50:45;18.10;48.90
9446;DHT22;4761;49.490;10.908;2023-04-15T14:53:11;18.10;48.90
9446;DHT22;4761;49.490;10.908;2023-04-15T14:55:37;18.10;48.90
9446;DHT22;4761;49.490;10.908;2023-04-15T14:58:02;18.10;48.90
9446;DHT22;4761;49.490;10.908;2023-04-15T15:00:29;18.10;48.90
9446;DHT22;4761;49.490;10.908;2023-04-15T15:02:55;18.10;49.00
9446;DHT22;4761;49.490;10.908;2023-04-15T15:05:20;18.10;49.00
9446;DHT22;4761;49.490;10.908;2023-04-15T15:07:46;18.10;49.00
9446;DHT22;4761;49.490;10.908;2023-04-15T15:10:11;18.10;49.00
9446;DHT22;4761;49.490;10.908;2023-04-15T15:12:37;18.10;49.00
9446;DHT22;4761;49.490;10.908;2023-04-15T15:15:03;18.10;49.10
9446;DHT22;4761;49.490;10.908;2023-04-15T15:17:29;18.10;49.10
9446;DHT22;4761;49.490;10.908;2023-04-15T15:19:55;18.00;49.10
9446;DHT22;4761;49.490;10.908;2023-04-15T15:22:21;18.00;49.20
9446;DHT22;4761;49.490;10.908;2023-04-15T15:24:47;18.00;49.10
9446;DHT22;4761;49.490;10.908;2023-04-15T15:27:12;18.10;49.10
9446;DHT22;4761;49.490;10.908;2023-04-15T15:29:38;18.10;49.10
9446;DHT22;4761;49.490;10.908;2023-04-15T15:32:04;18.10;49.10
9446;DHT22;4761;49.490;10.908;2023-04-15T15:34:29;18.10;49.10
9446;DHT22;4761;49.490;10.908;2023-04-15T15:36:55;18.00;49.10
9446;DHT22;4761;49.490;10.908;2023-04-15T15:39:22;18.00;49.20
9446;DHT22;4761;49.490;10.908;2023-04-15T15:41:48;18.00;49.80
9446;DHT22;4761;49.490;10.908;2023-04-15T15:44:14;18.00;49.30
9446;DHT22;4761;49.490;10.908;2023-04-15T15:46:40;18.00;49.20
9446;DHT22;4761;49.490;10.908;2023-04-15T15:49:05;18.00;49.30